Time;durP1;ratioP1;P1;durP2;ratioP2;P2;SDS_P1;SDS_P2;PMS_P1;PMS_P2;Temp;Humidity;BMP_temperature;BMP_pressure;BME280_temperature;BME280_humidity;BME280_pressure;Samples;Min_cycle;Max_cycle;Signal;HPM_P1;HPM_P2
2023/05/06 00:00:00;;;;;;;;;;;;;;;20.54;52.94;101088.98;2318748;75;24816;-75
2023/05/06 00:03:02;;;;;;;;;;;;;;;20.53;53.00;101089.50;2289689;75;51135;-77
2023/05/06 00:06:05;;;;;;;;;;;;;;;20.49;53.16;101091.39;2304786;76;50265;-77
2023/05/06 00:09:06;;;;;;;;;;;;;;;20.49;53.22;101095.42;2322123;76;22401;-76
2023/05/06 00:12:08;;;;;;;;;;;;;;;20.48;53.30;101095.11;2300371;76;50616;-76
2023/05/06 00:15:10;;;;;;;;;;;;;;;20.47;53.31;101090.73;2279070;76;49557;-77
2023/05/06 00:18:13;;;;;;;;;;;;;;;20.47;53.36;101098.28;2304209;76;53988;-77
2023/05/06 00:21:15;;;;;;;;;;;;;;;20.48;53.24;101090.56;2304775;76;50636;-76
2023/05/06 00:24:17;;;;;;;;;;;;;;;20.52;53.13;101097.73;2304020;76;50447;-76
2023/05/06 00:27:18;;;;;;;;;;;;;;;20.51;53.24;101090.70;2304097;76;52526;-76
2023/05/06 00:30:20;;;;;;;;;;;;;;;20.47;53.47;101092.91;2341141;76;51441;-75
2023/05/06 00:33:21;;;;;;;;;;;;;;;20.46;53.46;101095.28;2341155;76;51309;-75
2023/05/06 00:36:23;;;;;;;;;;;;;;;20.46;53.55;101100.66;2304305;76;50597;-76
2023/05/06 00:39:25;;;;;;;;;;;;;;;20.46;53.52;101092.59;2304443;76;50321;-74
2023/05/06 00:42:27;;;;;;;;;;;;;;;20.45;53.37;101086.91;2288863;78;51522;-74
2023/05/06 00:45:28;;;;;;;;;;;;;;;20.45;53.59;101083.70;2262235;78;51413;-74
2023/05/06 00:48:30;;;;;;;;;;;;;;;20.47;53.48;101067.89;2288872;78;50597;-75
2023/05/06 00:51:32;;;;;;;;;;;;;;;20.45;53.46;101059.52;2286972;77;52553;-74
2023/05/06 00:54:33;;;;;;;;;;;;;;;20.44;53.42;101048.94;2288303;78;50352;-73
2023/05/06 00:57:35;;;;;;;;;;;;;;;20.46;53.36;101036.15;2288443;78;50217;-76
2023/05/06 01:00:36;;;;;;;;;;;;;;;20.48;53.28;101035.45;2287748;78;50291;-75
2023/05/06 01:03:38;;;;;;;;;;;;;;;20.43;53.51;101033.84;2261327;78;51849;-75
2023/05/06 01:06:51;;;;;;;;;;;;;;;20.43;53.55;101029.81;2288308;78;50385;-75
2023/05/06 01:09:57;;;;;;;;;;;;;;;20.43;53.54;101029.81;2288581;76;49930;-75
2023/05/06 01:13:00;;;;;;;;;;;;;;;20.40;53.61;101026.15;2287518;78;50742;-74
2023/05/06 01:16:02;;;;;;;;;;;;;;;20.38;53.81;101016.09;2260704;78;51702;-74
2023/05/06 01:19:05;;;;;;;;;;;;;;;20.37;53.83;101019.78;2260911;77;50237;-74
2023/05/06 01:22:06;;;;;;;;;;;;;;;20.37;53.88;101013.06;2287241;78;51598;-76
2023/05/06 01:25:08;;;;;;;;;;;;;;;20.37;53.86;101010.37;2287113;78;51554;-75
2023/05/06 01:28:10;;;;;;;;;;;;;;;20.36;53.90;101009.55;2236448;78;52595;-76
2023/05/06 01:31:12;;;;;;;;;;;;;;;20.36;53.91;101016.78;2261006;78;52285;-76
2023/05/06 01:34:15;;;;;;;;;;;;;;;20.36;53.94;101010.89;2287102;78;51466;-75
2023/05/06 01:37:24;;;;;;;;;;;;;;;20.35;53.92;101012.44;2260907;78;51120;-75
2023/05/06 01:40:27;;;;;;;;;;;;;;;20.35;53.93;101015.95;2253876;77;52532;-75
2023/05/06 01:43:30;;;;;;;;;;;;;;;20.35;53.93;101002.52;2264018;78;51473;-74
2023/05/06 01:46:31;;;;;;;;;;;;;;;20.36;53.95;101004.17;2263983;78;50628;-74
2023/05/06 01:49:33;;;;;;;;;;;;;;;20.36;53.92;100996.11;2264033;78;50373;-76
2023/05/06 01:52:34;;;;;;;;;;;;;;;20.37;53.83;100997.80;2229365;78;51095;-74
2023/05/06 01:55:36;;;;;;;;;;;;;;;20.37;53.85;100997.80;2263880;78;50625;-75
2023/05/06 01:58:38;;;;;;;;;;;;;;;20.36;53.89;101000.66;2289565;77;51425;-74
2023/05/06 02:01:39;;;;;;;;;;;;;;;20.37;53.90;101000.97;2289515;77;51447;-76
2023/05/06 02:04:41;;;;;;;;;;;;;;;20.37;53.92;100999.14;2263520;78;52236;-73
2023/05/06 02:07:42;;;;;;;;;;;;;;;20.39;53.84;100992.21;2298515;77;51429;-70
2023/05/06 02:10:44;;;;;;;;;;;;;;;20.41;53.60;100988.84;2245620;77;50223;-74
2023/05/06 02:13:45;;;;;;;;;;;;;;;20.41;53.58;100990.17;2302205;77;51472;-77
2023/05/06 02:16:47;;;;;;;;;;;;;;;20.40;53.69;100998.76;2262545;77;52391;-73
2023/05/06 02:19:49;;;;;;;;;;;;;;;20.38;53.84;101009.38;2287886;77;51234;-74
2023/05/06 02:22:50;;;;;;;;;;;;;;;20.39;53.73;101005.13;2302327;77;51555;-75
2023/05/06 02:25:52;;;;;;;;;;;;;;;20.38;53.77;101016.92;2302219;77;50680;-73
2023/05/06 02:28:54;;;;;;;;;;;;;;;20.38;53.79;101005.34;2291839;77;52278;-75
2023/05/06 02:31:55;;;;;;;;;;;;;;;20.40;53.70;101000.62;2302405;77;50180;-73
2023/05/06 02:34:57;;;;;;;;;;;;;;;20.40;53.68;101013.54;2302143;77;50309;-73
2023/05/06 02:37:59;;;;;;;;;;;;;;;20.43;53.54;101006.45;2302613;76;50204;-74
2023/05/06 02:41:00;;;;;;;;;;;;;;;20.47;53.44;101008.23;2296640;76;51233;-75
2023/05/06 02:44:02;;;;;;;;;;;;;;;20.46;53.45;101014.64;2287011;78;50129;-75
2023/05/06 02:47:03;;;;;;;;;;;;;;;20.45;53.52;101016.50;2287228;78;50739;-73
2023/05/06 02:50:05;;;;;;;;;;;;;;;20.47;53.41;101017.64;2287150;78;50220;-74
2023/05/06 02:53:08;;;;;;;;;;;;;;;20.48;53.39;101017.98;2260788;78;49603;-75
2023/05/06 02:56:09;;;;;;;;;;;;;;;20.47;53.39;101023.02;2287012;78;51549;-74
2023/05/06 02:59:11;;;;;;;;;;;;;;;20.48;53.32;101015.30;2261136;78;50700;-75
2023/05/06 03:02:13;;;;;;;;;;;;;;;20.45;53.28;101008.95;2287178;78;51444;-74
2023/05/06 03:05:14;;;;;;;;;;;;;;;20.45;53.29;101012.47;2236317;78;51624;-74
2023/05/06 03:08:16;;;;;;;;;;;;;;;20.47;53.26;101000.69;2271520;76;51498;-75
2023/05/06 03:11:17;;;;;;;;;;;;;;;20.46;53.23;100994.48;2313096;76;51505;-73
2023/05/06 03:14:19;;;;;;;;;;;;;;;20.45;53.23;100996.86;2298987;76;51374;-75
2023/05/06 03:17:21;;;;;;;;;;;;;;;20.44;53.21;100993.31;2273555;76;51214;-74
2023/05/06 03:20:22;;;;;;;;;;;;;;;20.43;53.22;100990.83;2299066;76;50401;-76
2023/05/06 03:23:24;;;;;;;;;;;;;;;20.44;53.25;100996.52;2299080;76;50573;-74
2023/05/06 03:26:25;;;;;;;;;;;;;;;20.42;53.34;100995.38;2298958;76;50317;-74
2023/05/06 03:29:27;;;;;;;;;;;;;;;20.43;53.24;100985.45;2273662;76;51461;-75
2023/05/06 03:32:29;;;;;;;;;;;;;;;20.42;53.27;100989.14;2299051;76;51423;-73
2023/05/06 03:35:31;;;;;;;;;;;;;;;20.41;53.25;100999.07;2325961;76;50457;-73
2023/05/06 03:38:32;;;;;;;;;;;;;;;20.41;53.25;101000.93;2291075;76;50600;-73
2023/05/06 03:41:34;;;;;;;;;;;;;;;20.40;53.34;100997.41;2292049;76;52469;-73
2023/05/06 03:44:36;;;;;;;;;;;;;;;20.41;53.28;100999.07;2292170;76;51462;-74
2023/05/06 03:47:37;;;;;;;;;;;;;;;20.41;53.31;100994.20;2322541;76;50702;-74
2023/05/06 03:50:39;;;;;;;;;;;;;;;20.40;53.28;100992.04;2279968;77;51515;-75
2023/05/06 03:53:41;;;;;;;;;;;;;;;20.41;53.32;100995.55;2301433;77;50647;-75
2023/05/06 03:56:42;;;;;;;;;;;;;;;20.41;53.24;100991.52;2301381;77;50582;-74
2023/05/06 03:59:44;;;;;;;;;;;;;;;20.40;53.30;100981.80;2301628;77;51436;-74
2023/05/06 04:02:45;;;;;;;;;;;;;;;20.39;53.32;100977.43;2301649;76;50602;-75
2023/05/06 04:05:49;;;;;;;;;;;;;;;20.39;53.34;100976.91;2254864;77;51048;-74
2023/05/06 04:08:50;;;;;;;;;;;;;;;20.38;53.38;100969.88;2272930;77;50625;-74
2023/05/06 04:11:52;;;;;;;;;;;;;;;20.38;53.37;100971.75;2301526;77;51396;-75
2023/05/06 04:14:53;;;;;;;;;;;;;;;20.38;53.36;100977.12;2301366;77;51416;-74
2023/05/06 04:17:55;;;;;;;;;;;;;;;20.37;53.35;100978.12;2279804;77;52288;-75
2023/05/06 04:20:57;;;;;;;;;;;;;;;20.37;53.44;100975.44;2301538;77;51507;-75
2023/05/06 04:23:58;;;;;;;;;;;;;;;20.37;53.42;100984.36;2301391;77;50816;-71
2023/05/06 04:27:01;;;;;;;;;;;;;;;20.37;53.49;100991.08;2301335;77;51404;-71
2023/05/06 04:30:03;;;;;;;;;;;;;;;20.35;53.70;100993.63;2305267;76;49989;-71
2023/05/06 04:33:04;;;;;;;;;;;;;;;20.35;53.70;100992.28;2305382;76;51286;-71
2023/05/06 04:36:06;;;;;;;;;;;;;;;20.36;53.63;100990.73;2301247;77;50178;-71
2023/05/06 04:39:09;;;;;;;;;;;;;;;20.34;53.84;100987.91;2300219;76;52125;-70
2023/05/06 04:42:10;;;;;;;;;;;;;;;20.35;53.72;100999.00;2295415;76;51224;-71
2023/05/06 04:45:12;;;;;;;;;;;;;;;20.37;53.60;100999.63;2292363;77;50648;-70
2023/05/06 04:48:14;;;;;;;;;;;;;;;20.34;53.80;100995.97;2276526;76;51394;-71
2023/05/06 04:51:16;;;;;;;;;;;;;;;20.36;53.74;101002.00;2331675;76;51530;-71
2023/05/06 04:54:18;;;;;;;;;;;;;;;20.33;53.89;101005.89;2296931;76;52310;-70
2023/05/06 04:57:19;;;;;;;;;;;;;;;20.34;53.76;101012.92;2323522;76;50355;-73
2023/05/06 05:00:21;;;;;;;;;;;;;;;20.35;53.66;101016.47;2331819;76;50188;-72
2023/05/06 05:03:23;;;;;;;;;;;;;;;20.36;53.70;101014.09;2323592;76;51512;-70
2023/05/06 05:06:25;;;;;;;;;;;;;;;20.37;53.54;101019.30;2323726;76;50425;-70
2023/05/06 05:09:27;;;;;;;;;;;;;;;20.37;53.64;101017.09;2310906;76;50201;-71
2023/05/06 05:12:28;;;;;;;;;;;;;;;20.36;53.40;101014.09;2331723;76;50212;-70
2023/05/06 05:15:30;;;;;;;;;;;;;;;20.37;53.35;101023.81;2331395;76;50705;-70
2023/05/06 05:18:31;;;;;;;;;;;;;;;20.37;53.27;101034.08;2311618;76;52456;-70
2023/05/06 05:21:33;;;;;;;;;;;;;;;20.37;53.19;101038.11;2297443;76;50651;-71
2023/05/06 05:24:34;;;;;;;;;;;;;;;20.37;53.14;101031.88;2297134;76;51405;-71
2023/05/06 05:27:36;;;;;;;;;;;;;;;20.36;53.11;101036.94;2331613;76;51547;-71
2023/05/06 05:30:38;;;;;;;;;;;;;;;20.36;53.11;101043.66;2272279;76;52078;-72
2023/05/06 05:33:39;;;;;;;;;;;;;;;20.28;50.52;101039.72;2297423;76;50333;-71
2023/05/06 05:36:41;;;;;;;;;;;;;;;20.19;50.42;101038.47;2330809;76;50595;-71
2023/05/06 05:39:43;;;;;;;;;;;;;;;20.19;51.82;101035.78;2285906;76;50298;-71
2023/05/06 05:42:44;;;;;;;;;;;;;;;20.20;51.58;101030.72;2288952;76;51167;-72
2023/05/06 05:45:46;;;;;;;;;;;;;;;20.20;51.39;101024.00;2286974;78;50431;-70
2023/05/06 05:48:48;;;;;;;;;;;;;;;20.19;51.72;101030.41;2286799;78;50366;-70
2023/05/06 05:51:49;;;;;;;;;;;;;;;20.21;51.78;101034.23;2287210;78;50289;-72
2023/05/06 05:54:51;;;;;;;;;;;;;;;20.22;51.78;101041.30;2260990;78;51780;-71
2023/05/06 05:57:52;;;;;;;;;;;;;;;20.22;51.68;101045.33;2287202;78;51495;-70
2023/05/06 06:00:54;;;;;;;;;;;;;;;20.20;51.81;101036.61;2286930;78;50537;-72
2023/05/06 06:03:56;;;;;;;;;;;;;;;20.13;51.55;101032.47;2287066;78;51515;-71
2023/05/06 06:07:00;;;;;;;;;;;;;;;20.16;51.56;101033.95;2284496;78;50079;-73
2023/05/06 06:10:01;;;;;;;;;;;;;;;20.14;51.47;101034.16;2287302;78;22493;-72
2023/05/06 06:13:03;;;;;;;;;;;;;;;20.15;51.44;101033.64;2287231;78;51467;-74
2023/05/06 06:16:04;;;;;;;;;;;;;;;20.14;51.37;101038.67;2298091;77;50409;-71
2023/05/06 06:19:06;;;;;;;;;;;;;;;20.14;51.39;101040.02;2298167;77;51389;-72
2023/05/06 06:22:07;;;;;;;;;;;;;;;20.11;51.30;101041.22;2287210;76;50224;-73
2023/05/06 06:25:09;;;;;;;;;;;;;;;20.10;51.80;101044.94;2298001;77;50313;-72
2023/05/06 06:28:11;;;;;;;;;;;;;;;20.13;52.00;101049.94;2298294;77;51467;-72
2023/05/06 06:31:12;;;;;;;;;;;;;;;20.13;51.92;101060.68;2298233;77;51313;-71
2023/05/06 06:34:14;;;;;;;;;;;;;;;20.13;52.10;101059.85;2287053;77;50272;-75
2023/05/06 06:37:15;;;;;;;;;;;;;;;20.13;52.21;101056.65;2287221;78;51438;-72
2023/05/06 06:40:17;;;;;;;;;;;;;;;20.13;52.06;101063.36;2286121;76;50218;-71
2023/05/06 06:43:19;;;;;;;;;;;;;;;20.13;52.00;101062.02;2298346;77;51303;-72
2023/05/06 06:46:20;;;;;;;;;;;;;;;20.13;52.01;101063.36;2287082;78;50583;-71
2023/05/06 06:49:22;;;;;;;;;;;;;;;20.12;52.02;101071.11;2287211;78;51498;-72
2023/05/06 06:52:23;;;;;;;;;;;;;;;20.11;52.29;101064.05;2298353;77;51462;-72
2023/05/06 06:55:25;;;;;;;;;;;;;;;20.11;53.02;101066.73;2272356;78;52691;-72
2023/05/06 06:58:27;;;;;;;;;;;;;;;20.12;53.21;101071.11;2298183;77;51389;-77
2023/05/06 07:01:28;;;;;;;;;;;;;;;20.12;52.83;101064.40;2287349;78;51452;-74
2023/05/06 07:04:30;;;;;;;;;;;;;;;20.11;53.32;101060.53;2287105;78;51474;-73
2023/05/06 07:07:31;;;;;;;;;;;;;;;20.09;53.42;101063.42;2287341;78;50144;-75
2023/05/06 07:10:34;;;;;;;;;;;;;;;20.14;53.09;101069.56;2287286;78;50224;-75
2023/05/06 07:13:36;;;;;;;;;;;;;;;20.12;52.92;101064.40;2298075;77;50689;-75
2023/05/06 07:16:37;;;;;;;;;;;;;;;20.15;52.84;101073.95;2287080;78;51395;-75
2023/05/06 07:19:39;;;;;;;;;;;;;;;20.13;52.83;101074.11;2272654;78;52210;-76
2023/05/06 07:22:41;;;;;;;;;;;;;;;20.15;52.72;101068.57;2298351;77;50214;-75
2023/05/06 07:25:42;;;;;;;;;;;;;;;20.14;52.64;101077.14;2287058;78;50189;-75
2023/05/06 07:28:44;;;;;;;;;;;;;;;20.15;52.55;101076.63;2287267;78;50600;-76
2023/05/06 07:31:45;;;;;;;;;;;;;;;20.15;52.46;101068.05;2274837;77;51606;-76
2023/05/06 07:34:47;;;;;;;;;;;;;;;20.14;52.43;101069.09;2298130;77;50231;-75
2023/05/06 07:37:49;;;;;;;;;;;;;;;20.14;52.41;101073.11;2287298;78;50582;-75
2023/05/06 07:40:53;;;;;;;;;;;;;;;20.14;52.38;101074.45;2287241;76;50309;-74
2023/05/06 07:43:55;;;;;;;;;;;;;;;20.14;52.35;101066.40;2272509;78;51748;-76
2023/05/06 07:46:56;;;;;;;;;;;;;;;20.13;52.37;101071.42;2298494;77;50226;-75
2023/05/06 07:49:59;;;;;;;;;;;;;;;20.13;52.35;101075.97;2287348;78;50253;-76
2023/05/06 07:53:00;;;;;;;;;;;;;;;20.12;52.31;101082.38;2287461;78;51466;-75
2023/05/06 07:56:02;;;;;;;;;;;;;;;20.10;52.97;101087.92;2299818;77;51627;-75
2023/05/06 07:59:04;;;;;;;;;;;;;;;20.10;52.43;101094.63;2300609;77;50668;-76
2023/05/06 08:02:06;;;;;;;;;;;;;;;20.09;52.51;101093.46;2298650;77;51464;-75
2023/05/06 08:05:08;;;;;;;;;;;;;;;20.11;52.51;101094.12;2287562;78;51374;-76
2023/05/06 08:08:09;;;;;;;;;;;;;;;20.11;52.58;101100.32;2273315;76;51207;-75
2023/05/06 08:11:11;;;;;;;;;;;;;;;20.09;52.72;101102.38;2284021;77;50608;-75
2023/05/06 08:14:12;;;;;;;;;;;;;;;20.10;52.51;101099.17;2287465;78;50279;-75
2023/05/06 08:17:14;;;;;;;;;;;;;;;20.10;52.43;101112.09;2287559;78;49995;-74
2023/05/06 08:20:16;;;;;;;;;;;;;;;20.10;52.36;101109.41;2261191;78;51111;-74
2023/05/06 08:23:17;;;;;;;;;;;;;;;20.10;52.37;101109.41;2264871;77;50100;-76
2023/05/06 08:26:19;;;;;;;;;;;;;;;20.09;52.35;101114.95;2261360;78;50581;-75
2023/05/06 08:29:20;;;;;;;;;;;;;;;20.09;52.34;101110.44;2287766;78;50607;-75
2023/05/06 08:32:22;;;;;;;;;;;;;;;20.09;52.33;101114.47;2260788;78;50967;-76
2023/05/06 08:35:24;;;;;;;;;;;;;;;20.06;52.56;101112.63;2261343;78;51566;-75
2023/05/06 08:38:25;;;;;;;;;;;;;;;20.07;52.38;101119.70;2273755;76;51438;-76
2023/05/06 08:41:27;;;;;;;;;;;;;;;20.05;52.56;101117.18;2287515;76;51496;-76
2023/05/06 08:44:28;;;;;;;;;;;;;;;20.06;52.70;101124.20;2298478;77;52367;-76
2023/05/06 08:47:30;;;;;;;;;;;;;;;20.04;52.86;101132.12;2287432;78;51452;-76
2023/05/06 08:50:32;;;;;;;;;;;;;;;20.06;52.63;101137.64;2305631;76;50215;-76
2023/05/06 08:53:34;;;;;;;;;;;;;;;20.05;52.61;101130.61;2289743;76;51570;-76
2023/05/06 08:56:35;;;;;;;;;;;;;;;20.04;52.71;101137.49;2286332;77;49825;-76
2023/05/06 08:59:37;;;;;;;;;;;;;;;20.04;52.66;101141.04;2287310;78;50240;-76
2023/05/06 09:02:39;;;;;;;;;;;;;;;20.04;52.66;101145.55;2287444;78;51424;-76
2023/05/06 09:05:40;;;;;;;;;;;;;;;20.05;52.51;101153.44;2287314;78;50351;-76
2023/05/06 09:08:42;;;;;;;;;;;;;;;20.06;52.48;101149.73;2246883;76;52336;-77
2023/05/06 09:11:43;;;;;;;;;;;;;;;20.05;52.47;101157.47;2259876;78;51453;-77
2023/05/06 09:14:48;;;;;;;;;;;;;;;20.05;52.46;101157.47;2287262;78;49921;-77
2023/05/06 09:17:49;;;;;;;;;;;;;;;20.04;52.74;101145.06;2261310;78;50640;-77
2023/05/06 09:20:51;;;;;;;;;;;;;;;20.04;52.55;101146.41;2284394;76;52384;-77
2023/05/06 09:23:52;;;;;;;;;;;;;;;20.03;52.60;101160.84;2267135;78;50628;-76
2023/05/06 09:26:54;;;;;;;;;;;;;;;20.02;52.62;101159.19;2297229;76;50203;-76
2023/05/06 09:30:00;;;;;;;;;;;;;;;20.03;52.70;101155.47;2280212;76;50692;-76
2023/05/06 09:33:03;;;;;;;;;;;;;;;20.03;52.86;101161.36;2326194;76;51375;-76
2023/05/06 09:36:05;;;;;;;;;;;;;;;20.04;52.74;101158.98;2297905;76;50732;-76
2023/05/06 09:39:08;;;;;;;;;;;;;;;20.04;52.85;101162.53;2299387;76;51492;-76
2023/05/06 09:42:10;;;;;;;;;;;;;;;20.04;52.73;101165.22;2296266;76;50260;-77
2023/05/06 09:45:11;;;;;;;;;;;;;;;20.04;52.75;101169.25;2300991;76;51890;-76
2023/05/06 09:48:14;;;;;;;;;;;;;;;20.03;52.79;101162.19;2291561;76;50052;-76
2023/05/06 09:51:16;;;;;;;;;;;;;;;20.05;52.77;101168.22;2288488;78;50420;-77
2023/05/06 09:54:18;;;;;;;;;;;;;;;20.01;53.20;101165.55;2286784;78;51554;-77
2023/05/06 09:57:19;;;;;;;;;;;;;;;20.02;52.98;101161.87;2281263;76;52471;-77
2023/05/06 10:00:26;;;;;;;;;;;;;;;20.03;52.95;101168.90;2300357;76;50255;-77
2023/05/06 10:03:24;;;;;;;;;;;;;;;20.02;53.25;101171.27;2286448;78;23247;-77
2023/05/06 10:06:26;;;;;;;;;;;;;;;20.03;53.16;101171.59;2289880;76;50258;-77
2023/05/06 10:09:28;;;;;;;;;;;;;;;20.04;53.01;101171.94;2293318;76;51393;-76
2023/05/06 10:12:29;;;;;;;;;;;;;;;20.04;53.55;101182.68;2300042;76;50196;-76
2023/05/06 10:15:31;;;;;;;;;;;;;;;20.04;53.43;101171.94;2308984;76;50347;-76
2023/05/06 10:18:34;;;;;;;;;;;;;;;20.03;53.37;101174.78;2313138;76;50422;-77
2023/05/06 10:21:37;;;;;;;;;;;;;;;20.03;53.45;101175.61;2287296;78;50413;-77
2023/05/06 10:24:46;;;;;;;;;;;;;;;20.03;53.48;101186.36;2286019;78;51170;-77
2023/05/06 10:27:48;;;;;;;;;;;;;;;20.02;53.49;101191.42;2284040;77;51491;-76
2023/05/06 10:30:51;;;;;;;;;;;;;;;20.04;53.52;101189.87;2287364;78;51505;-77
2023/05/06 10:33:52;;;;;;;;;;;;;;;20.04;53.32;101193.91;2287043;77;50646;-76
2023/05/06 10:36:56;;;;;;;;;;;;;;;20.02;53.37;101186.05;2306057;76;51054;-76
2023/05/06 10:39:57;;;;;;;;;;;;;;;20.01;53.42;101187.04;2297495;76;50266;-77
2023/05/06 10:43:17;;;;;;;;;;;;;;;20.00;53.72;101182.70;2301547;76;50578;-77
2023/05/06 10:46:19;;;;;;;;;;;;;;;19.98;53.62;101182.86;2325953;76;50365;-77
2023/05/06 10:49:21;;;;;;;;;;;;;;;19.96;53.80;101185.40;2316564;76;52349;-76
2023/05/06 10:52:22;;;;;;;;;;;;;;;19.99;53.86;101195.81;2283156;76;50232;-75
2023/05/06 10:55:29;;;;;;;;;;;;;;;19.98;53.60;101194.95;2294953;76;50275;-75
2023/05/06 10:58:30;;;;;;;;;;;;;;;20.00;53.57;101196.13;2325796;76;50750;-76
2023/05/06 11:01:32;;;;;;;;;;;;;;;19.98;53.72;101193.61;2259048;77;52435;-70
2023/05/06 11:04:33;;;;;;;;;;;;;;;20.00;53.55;101196.13;2290296;76;51403;-71
2023/05/06 11:07:35;;;;;;;;;;;;;;;19.93;54.09;101195.16;2320526;76;51511;-74
2023/05/06 11:10:37;;;;;;;;;;;;;;;19.90;54.08;101195.02;2324089;76;51415;-72
2023/05/06 11:13:38;;;;;;;;;;;;;;;19.95;53.76;101199.86;2298440;76;50054;-72
2023/05/06 11:16:47;;;;;;;;;;;;;;;19.93;54.11;101199.19;2306490;76;51418;-73
2023/05/06 11:19:49;;;;;;;;;;;;;;;19.98;53.67;101198.15;2340096;76;51510;-73
2023/05/06 11:22:50;;;;;;;;;;;;;;;19.99;53.64;101201.19;2340038;76;50305;-73
2023/05/06 11:25:52;;;;;;;;;;;;;;;19.98;53.65;101206.20;2316619;76;52528;-74
2023/05/06 11:28:54;;;;;;;;;;;;;;;19.98;53.90;101208.89;2302801;76;50447;-74
2023/05/06 11:31:56;;;;;;;;;;;;;;;19.98;53.81;101218.30;2296153;76;51042;-74
2023/05/06 11:34:57;;;;;;;;;;;;;;;19.98;54.06;101219.64;2308849;76;50207;-74
2023/05/06 11:37:59;;;;;;;;;;;;;;;19.98;53.83;101216.95;2261088;76;52439;-73
2023/05/06 11:41:01;;;;;;;;;;;;;;;19.96;54.07;101224.34;2301246;76;50342;-73
2023/05/06 11:44:02;;;;;;;;;;;;;;;19.99;53.70;101230.73;2299159;77;49934;-74
2023/05/06 11:47:08;;;;;;;;;;;;;;;19.97;53.89;101231.41;2308405;76;51504;-77
2023/05/06 11:50:10;;;;;;;;;;;;;;;19.98;53.73;101229.04;2304040;76;50147;-76
2023/05/06 11:53:11;;;;;;;;;;;;;;;19.97;54.02;101238.13;2266522;77;51512;-77
2023/05/06 11:56:13;;;;;;;;;;;;;;;19.99;53.80;101237.45;2302213;76;51452;-77
2023/05/06 11:59:14;;;;;;;;;;;;;;;19.99;53.84;101244.16;2302429;77;51331;-76
2023/05/06 12:02:18;;;;;;;;;;;;;;;19.96;54.26;101248.52;2303971;76;52490;-77
2023/05/06 12:05:21;;;;;;;;;;;;;;;19.95;54.14;101249.03;2304219;76;51568;-77
2023/05/06 12:08:24;;;;;;;;;;;;;;;19.96;53.83;101256.09;2302478;76;50656;-77
2023/05/06 12:11:25;;;;;;;;;;;;;;;19.95;53.80;101259.78;2324194;76;50349;-77
2023/05/06 12:14:27;;;;;;;;;;;;;;;19.96;53.67;101260.61;2269720;77;51225;-78
2023/05/06 12:17:29;;;;;;;;;;;;;;;19.96;53.88;101263.30;2302797;77;49929;-77
2023/05/06 12:20:31;;;;;;;;;;;;;;;19.95;53.91;101263.80;2317127;76;51454;-75
2023/05/06 12:23:33;;;;;;;;;;;;;;;19.94;54.23;101272.06;2341755;76;50333;-78
2023/05/06 12:26:44;;;;;;;;;;;;;;;19.90;54.45;101279.62;2287107;77;50070;-77
2023/05/06 12:29:52;;;;;;;;;;;;;;;19.95;54.01;101285.81;2302245;77;50241;-77
2023/05/06 12:32:57;;;;;;;;;;;;;;;19.91;54.03;101285.81;2302249;77;51463;-77
2023/05/06 12:36:01;;;;;;;;;;;;;;;19.93;54.19;101285.14;2302347;76;51334;-77
2023/05/06 12:39:02;;;;;;;;;;;;;;;19.91;54.02;101288.50;2278699;76;52445;-77
2023/05/06 12:42:04;;;;;;;;;;;;;;;19.89;54.31;101286.53;2271438;77;50292;-77
2023/05/06 12:45:13;;;;;;;;;;;;;;;19.89;54.27;101287.36;2336290;76;50701;-76
2023/05/06 12:48:17;;;;;;;;;;;;;;;19.89;54.41;101297.27;2340305;76;50653;-78
2023/05/06 12:51:19;;;;;;;;;;;;;;;19.87;54.16;101306.00;2334404;76;50073;-77
2023/05/06 12:54:30;;;;;;;;;;;;;;;19.87;54.39;101305.48;2334018;76;49980;-77
2023/05/06 12:57:31;;;;;;;;;;;;;;;19.87;54.39;101312.72;2340131;76;51352;-76
2023/05/06 13:00:33;;;;;;;;;;;;;;;19.87;54.31;101315.40;2334266;76;51371;-76
2023/05/06 13:03:39;;;;;;;;;;;;;;;19.87;54.24;101318.09;2307929;76;51503;-77
2023/05/06 13:06:41;;;;;;;;;;;;;;;19.88;54.18;101321.09;2339257;76;50686;-76
2023/05/06 13:09:43;;;;;;;;;;;;;;;19.87;54.35;101318.09;2312048;76;51405;-77
2023/05/06 13:12:44;;;;;;;;;;;;;;;19.89;54.09;101324.13;2297957;76;50312;-77
2023/05/06 13:15:46;;;;;;;;;;;;;;;19.86;54.10;101321.28;2297272;76;51600;-76
2023/05/06 13:18:48;;;;;;;;;;;;;;;19.85;54.28;101318.76;2332088;76;51392;-75
2023/05/06 13:21:50;;;;;;;;;;;;;;;19.86;54.26;101315.05;2332066;76;50248;-77
2023/05/06 13:24:52;;;;;;;;;;;;;;;19.85;54.12;101314.22;2331599;76;50328;-77
2023/05/06 13:27:54;;;;;;;;;;;;;;;19.86;54.26;101321.77;2297607;76;50104;-77
2023/05/06 13:30:55;;;;;;;;;;;;;;;19.85;54.24;101317.41;2297714;76;51499;-78
2023/05/06 13:33:57;;;;;;;;;;;;;;;19.86;54.00;101324.45;2297523;76;51427;-77
2023/05/06 13:36:58;;;;;;;;;;;;;;;19.84;54.29;101326.50;2327521;76;51347;-78
2023/05/06 13:40:00;;;;;;;;;;;;;;;19.82;54.28;101321.80;2279347;76;52624;-78
2023/05/06 13:43:02;;;;;;;;;;;;;;;19.82;54.17;101319.12;2335867;75;52195;-78
2023/05/06 13:46:03;;;;;;;;;;;;;;;19.84;54.12;101319.27;2351701;75;51226;-78
2023/05/06 13:49:05;;;;;;;;;;;;;;;19.84;54.12;101321.95;2319518;75;50665;-77
2023/05/06 13:52:06;;;;;;;;;;;;;;;19.83;54.29;101327.48;2319513;75;51014;-78
2023/05/06 13:55:08;;;;;;;;;;;;;;;19.83;54.04;101324.30;2351648;75;51636;-78
2023/05/06 13:58:10;;;;;;;;;;;;;;;19.83;54.04;101321.61;2351875;75;51558;-79
2023/05/06 14:01:11;;;;;;;;;;;;;;;19.84;54.11;101325.16;2351597;75;51490;-76
2023/05/06 14:04:13;;;;;;;;;;;;;;;19.83;54.21;101319.44;2293908;75;52758;-77
2023/05/06 14:07:15;;;;;;;;;;;;;;;19.83;54.12;101322.13;2334160;75;50225;-78
2023/05/06 14:10:16;;;;;;;;;;;;;;;19.81;54.15;101323.66;2323607;76;51477;-79
2023/05/06 14:13:18;;;;;;;;;;;;;;;19.84;53.95;101327.84;2332863;76;50662;-77
2023/05/06 14:16:19;;;;;;;;;;;;;;;19.80;54.22;101323.30;2298262;76;49487;-78
2023/05/06 14:19:22;;;;;;;;;;;;;;;19.80;54.12;101321.96;2333178;76;50399;-78
2023/05/06 14:22:23;;;;;;;;;;;;;;;19.80;54.17;101321.96;2333044;76;51519;-78
2023/05/06 14:25:26;;;;;;;;;;;;;;;19.82;53.98;101325.83;2332456;76;51614;-76
2023/05/06 14:28:28;;;;;;;;;;;;;;;19.81;53.92;101322.31;2297637;76;51683;-77
2023/05/06 14:31:29;;;;;;;;;;;;;;;19.82;54.04;101325.83;2297814;76;51378;-77
2023/05/06 14:34:33;;;;;;;;;;;;;;;19.79;54.03;101327.84;2297730;76;51426;-77
2023/05/06 14:37:34;;;;;;;;;;;;;;;19.79;54.08;101318.96;2314250;76;51501;-77
2023/05/06 14:40:37;;;;;;;;;;;;;;;19.79;53.95;101322.48;2263496;77;52745;-77
2023/05/06 14:43:39;;;;;;;;;;;;;;;19.79;53.95;101325.67;2307342;76;50656;-78
2023/05/06 14:46:40;;;;;;;;;;;;;;;19.80;53.87;101318.77;2331695;76;50317;-77
2023/05/06 14:49:42;;;;;;;;;;;;;;;19.77;54.06;101325.00;2297702;76;50577;-77
2023/05/06 14:52:43;;;;;;;;;;;;;;;19.77;53.94;101323.15;2323713;76;52515;-79
2023/05/06 14:55:47;;;;;;;;;;;;;;;19.77;53.98;101321.80;2332126;76;50604;-78
2023/05/06 14:58:48;;;;;;;;;;;;;;;19.75;54.11;101325.16;2298865;76;22136;-77
2023/05/06 15:01:50;;;;;;;;;;;;;;;19.76;54.04;101328.20;2298323;76;51504;-77
2023/05/06 15:04:51;;;;;;;;;;;;;;;19.76;54.00;101338.94;2273468;76;50997;-78
2023/05/06 15:07:53;;;;;;;;;;;;;;;19.77;53.93;101342.45;2325840;76;50608;-78
2023/05/06 15:10:55;;;;;;;;;;;;;;;19.77;53.82;101348.66;2323915;76;50593;-77
2023/05/06 15:13:56;;;;;;;;;;;;;;;19.74;54.04;101346.84;2340794;76;50691;-78
2023/05/06 15:16:58;;;;;;;;;;;;;;;19.75;53.94;101352.53;2341559;76;51447;-78
2023/05/06 15:19:59;;;;;;;;;;;;;;;19.77;53.80;101355.88;2338701;76;50583;-78
2023/05/06 15:23:01;;;;;;;;;;;;;;;19.76;53.77;101357.73;2336377;76;51545;-77
2023/05/06 15:26:02;;;;;;;;;;;;;;;19.76;53.81;101360.94;2340620;76;51540;-77
2023/05/06 15:29:05;;;;;;;;;;;;;;;19.74;53.83;101357.07;2335096;76;50704;-77
2023/05/06 15:32:07;;;;;;;;;;;;;;;19.75;53.86;101365.44;2338063;76;50394;-77